sensor_id;sensor_type;location;lat;lon;timestamp;temperature;humidity
13606;DHT22;6874;52.084;5.090;2022-10-22T00:01:50;14.20;99.90
13606;DHT22;6874;52.084;5.090;2022-10-22T00:04:16;14.20;99.90
13606;DHT22;6874;52.084;5.090;2022-10-22T00:06:41;14.20;99.90
13606;DHT22;6874;52.084;5.090;2022-10-22T00:09:10;14.20;99.90
13606;DHT22;6874;52.084;5.090;2022-10-22T00:11:35;14.20;99.90
13606;DHT22;6874;52.084;5.090;2022-10-22T00:14:01;14.30;99.90
13606;DHT22;6874;52.084;5.090;2022-10-22T00:16:26;14.20;99.90
13606;DHT22;6874;52.084;5.090;2022-10-22T00:18:52;14.20;99.90
13606;DHT22;6874;52.084;5.090;2022-10-22T00:21:17;14.20;99.90
13606;DHT22;6874;52.084;5.090;2022-10-22T00:23:43;14.20;99.90
13606;DHT22;6874;52.084;5.090;2022-10-22T00:26:09;14.20;99.90
13606;DHT22;6874;52.084;5.090;2022-10-22T00:28:35;14.20;99.90
13606;DHT22;6874;52.084;5.090;2022-10-22T00:31:01;14.20;99.90
13606;DHT22;6874;52.084;5.090;2022-10-22T00:33:27;14.20;99.90
13606;DHT22;6874;52.084;5.090;2022-10-22T00:35:54;14.20;99.90
13606;DHT22;6874;52.084;5.090;2022-10-22T00:38:19;14.20;99.90
13606;DHT22;6874;52.084;5.090;2022-10-22T00:40:45;14.20;99.90
13606;DHT22;6874;52.084;5.090;2022-10-22T00:43:12;14.20;99.90
13606;DHT22;6874;52.084;5.090;2022-10-22T00:45:38;14.20;99.90
13606;DHT22;6874;52.084;5.090;2022-10-22T00:48:21;14.20;99.90
13606;DHT22;6874;52.084;5.090;2022-10-22T00:50:51;14.20;99.90
13606;DHT22;6874;52.084;5.090;2022-10-22T00:53:28;14.20;99.90
13606;DHT22;6874;52.084;5.090;2022-10-22T00:55:55;14.20;99.90
13606;DHT22;6874;52.084;5.090;2022-10-22T00:58:24;14.20;99.90
13606;DHT22;6874;52.084;5.090;2022-10-22T01:00:50;14.10;99.90
13606;DHT22;6874;52.084;5.090;2022-10-22T01:03:16;14.30;99.90
13606;DHT22;6874;52.084;5.090;2022-10-22T01:05:45;14.10;99.90
13606;DHT22;6874;52.084;5.090;2022-10-22T01:08:25;14.10;99.90
13606;DHT22;6874;52.084;5.090;2022-10-22T01:11:26;14.10;99.90
13606;DHT22;6874;52.084;5.090;2022-10-22T01:17:00;14.10;99.90
13606;DHT22;6874;52.084;5.090;2022-10-22T01:19:38;14.10;99.90
13606;DHT22;6874;52.084;5.090;2022-10-22T01:22:16;14.10;99.90
13606;DHT22;6874;52.084;5.090;2022-10-22T01:25:08;14.10;99.90
13606;DHT22;6874;52.084;5.090;2022-10-22T01:27:45;14.10;99.90
13606;DHT22;6874;52.084;5.090;2022-10-22T01:30:14;14.10;99.90
13606;DHT22;6874;52.084;5.090;2022-10-22T01:32:45;14.10;99.90
13606;DHT22;6874;52.084;5.090;2022-10-22T01:35:13;14.10;99.90
13606;DHT22;6874;52.084;5.090;2022-10-22T01:37:47;14.10;99.90
13606;DHT22;6874;52.084;5.090;2022-10-22T01:40:15;14.10;99.90
13606;DHT22;6874;52.084;5.090;2022-10-22T01:42:41;14.00;99.90
13606;DHT22;6874;52.084;5.090;2022-10-22T01:45:11;14.00;99.90
13606;DHT22;6874;52.084;5.090;2022-10-22T01:47:57;14.00;99.90
13606;DHT22;6874;52.084;5.090;2022-10-22T01:50:34;14.00;99.90
13606;DHT22;6874;52.084;5.090;2022-10-22T01:55:33;14.00;99.90
13606;DHT22;6874;52.084;5.090;2022-10-22T01:58:14;14.00;99.90
13606;DHT22;6874;52.084;5.090;2022-10-22T02:00:48;14.00;99.90
13606;DHT22;6874;52.084;5.090;2022-10-22T02:03:26;14.00;99.90
13606;DHT22;6874;52.084;5.090;2022-10-22T02:05:56;14.00;99.90
13606;DHT22;6874;52.084;5.090;2022-10-22T02:08:28;14.10;99.90
13606;DHT22;6874;52.084;5.090;2022-10-22T02:10:56;14.00;99.90
13606;DHT22;6874;52.084;5.090;2022-10-22T02:13:50;14.00;99.90
13606;DHT22;6874;52.084;5.090;2022-10-22T02:16:28;14.00;99.90
13606;DHT22;6874;52.084;5.090;2022-10-22T02:18:57;14.00;99.90
13606;DHT22;6874;52.084;5.090;2022-10-22T02:21:26;14.10;99.90
13606;DHT22;6874;52.084;5.090;2022-10-22T02:23:51;14.00;99.90
13606;DHT22;6874;52.084;5.090;2022-10-22T02:26:29;14.00;99.90
13606;DHT22;6874;52.084;5.090;2022-10-22T02:29:10;14.00;99.90
13606;DHT22;6874;52.084;5.090;2022-10-22T02:31:40;14.00;99.90
13606;DHT22;6874;52.084;5.090;2022-10-22T02:34:11;13.90;99.90
13606;DHT22;6874;52.084;5.090;2022-10-22T02:36:40;13.90;99.90
13606;DHT22;6874;52.084;5.090;2022-10-22T02:39:07;13.90;99.90
13606;DHT22;6874;52.084;5.090;2022-10-22T02:41:34;13.90;99.90
13606;DHT22;6874;52.084;5.090;2022-10-22T02:43:59;13.90;99.90
13606;DHT22;6874;52.084;5.090;2022-10-22T02:46:27;13.90;99.90
13606;DHT22;6874;52.084;5.090;2022-10-22T02:48:52;13.90;99.90
13606;DHT22;6874;52.084;5.090;2022-10-22T02:51:18;13.90;99.90
13606;DHT22;6874;52.084;5.090;2022-10-22T02:53:44;13.90;99.90
13606;DHT22;6874;52.084;5.090;2022-10-22T02:56:10;13.90;99.90
13606;DHT22;6874;52.084;5.090;2022-10-22T02:58:35;13.90;99.90
13606;DHT22;6874;52.084;5.090;2022-10-22T03:01:01;13.90;99.90
13606;DHT22;6874;52.084;5.090;2022-10-22T03:03:26;13.90;99.90
13606;DHT22;6874;52.084;5.090;2022-10-22T03:05:52;13.80;99.90
13606;DHT22;6874;52.084;5.090;2022-10-22T03:08:18;13.80;99.90
13606;DHT22;6874;52.084;5.090;2022-10-22T03:10:43;13.80;99.90
13606;DHT22;6874;52.084;5.090;2022-10-22T03:13:09;13.80;99.90
13606;DHT22;6874;52.084;5.090;2022-10-22T03:15:34;13.80;99.90
13606;DHT22;6874;52.084;5.090;2022-10-22T03:18:00;13.80;99.90
13606;DHT22;6874;52.084;5.090;2022-10-22T03:20:26;13.80;99.90
13606;DHT22;6874;52.084;5.090;2022-10-22T03:22:51;13.80;99.90
13606;DHT22;6874;52.084;5.090;2022-10-22T03:25:20;13.80;99.90
13606;DHT22;6874;52.084;5.090;2022-10-22T03:27:46;13.80;99.90
13606;DHT22;6874;52.084;5.090;2022-10-22T03:30:14;13.80;99.90
13606;DHT22;6874;52.084;5.090;2022-10-22T03:32:39;13.80;99.90
13606;DHT22;6874;52.084;5.090;2022-10-22T03:35:05;13.80;99.90
13606;DHT22;6874;52.084;5.090;2022-10-22T03:37:31;13.70;99.90
13606;DHT22;6874;52.084;5.090;2022-10-22T03:39:58;13.70;99.90
13606;DHT22;6874;52.084;5.090;2022-10-22T03:42:24;13.80;99.90
13606;DHT22;6874;52.084;5.090;2022-10-22T03:44:49;13.70;99.90
13606;DHT22;6874;52.084;5.090;2022-10-22T03:47:15;13.70;99.90
13606;DHT22;6874;52.084;5.090;2022-10-22T03:49:41;13.70;99.90
13606;DHT22;6874;52.084;5.090;2022-10-22T03:52:08;13.70;99.90
13606;DHT22;6874;52.084;5.090;2022-10-22T03:54:34;13.70;99.90
13606;DHT22;6874;52.084;5.090;2022-10-22T03:57:00;13.70;99.90
13606;DHT22;6874;52.084;5.090;2022-10-22T03:59:26;13.70;99.90
13606;DHT22;6874;52.084;5.090;2022-10-22T04:01:51;13.60;99.90
13606;DHT22;6874;52.084;5.090;2022-10-22T04:04:17;13.60;99.90
13606;DHT22;6874;52.084;5.090;2022-10-22T04:06:42;13.60;99.90
13606;DHT22;6874;52.084;5.090;2022-10-22T04:09:08;13.60;99.90
13606;DHT22;6874;52.084;5.090;2022-10-22T04:11:34;13.60;99.90
13606;DHT22;6874;52.084;5.090;2022-10-22T04:13:59;13.60;99.90
13606;DHT22;6874;52.084;5.090;2022-10-22T04:16:25;13.60;99.90
13606;DHT22;6874;52.084;5.090;2022-10-22T04:18:55;13.60;99.90
13606;DHT22;6874;52.084;5.090;2022-10-22T04:21:21;13.60;99.90
13606;DHT22;6874;52.084;5.090;2022-10-22T04:23:50;13.60;99.90
13606;DHT22;6874;52.084;5.090;2022-10-22T04:26:17;13.60;99.90
13606;DHT22;6874;52.084;5.090;2022-10-22T04:28:44;13.60;99.90
13606;DHT22;6874;52.084;5.090;2022-10-22T04:31:11;13.60;99.90
13606;DHT22;6874;52.084;5.090;2022-10-22T04:33:37;13.50;99.90
13606;DHT22;6874;52.084;5.090;2022-10-22T04:36:17;13.60;99.90
13606;DHT22;6874;52.084;5.090;2022-10-22T04:38:44;13.60;99.90
13606;DHT22;6874;52.084;5.090;2022-10-22T04:41:25;13.60;99.90
13606;DHT22;6874;52.084;5.090;2022-10-22T04:43:53;13.60;99.90
13606;DHT22;6874;52.084;5.090;2022-10-22T04:46:19;13.60;99.90
13606;DHT22;6874;52.084;5.090;2022-10-22T04:48:45;13.60;99.90
13606;DHT22;6874;52.084;5.090;2022-10-22T04:51:14;13.60;99.90
13606;DHT22;6874;52.084;5.090;2022-10-22T04:53:41;13.50;99.90
13606;DHT22;6874;52.084;5.090;2022-10-22T04:56:14;13.50;99.90
13606;DHT22;6874;52.084;5.090;2022-10-22T04:58:41;13.50;99.90
13606;DHT22;6874;52.084;5.090;2022-10-22T05:01:16;13.60;99.90
13606;DHT22;6874;52.084;5.090;2022-10-22T05:03:43;13.60;99.90
13606;DHT22;6874;52.084;5.090;2022-10-22T05:06:09;13.50;99.90
13606;DHT22;6874;52.084;5.090;2022-10-22T05:08:35;13.50;99.90
13606;DHT22;6874;52.084;5.090;2022-10-22T05:11:08;13.50;99.90
13606;DHT22;6874;52.084;5.090;2022-10-22T05:13:34;13.50;99.90
13606;DHT22;6874;52.084;5.090;2022-10-22T05:16:00;13.50;99.90
13606;DHT22;6874;52.084;5.090;2022-10-22T05:18:26;13.50;99.90
13606;DHT22;6874;52.084;5.090;2022-10-22T05:20:51;13.50;99.90
13606;DHT22;6874;52.084;5.090;2022-10-22T05:23:17;13.50;99.90
13606;DHT22;6874;52.084;5.090;2022-10-22T05:25:43;13.50;99.90
13606;DHT22;6874;52.084;5.090;2022-10-22T05:28:08;13.50;99.90
13606;DHT22;6874;52.084;5.090;2022-10-22T05:30:34;13.50;99.90
13606;DHT22;6874;52.084;5.090;2022-10-22T05:32:59;13.50;99.90
13606;DHT22;6874;52.084;5.090;2022-10-22T05:35:25;13.50;99.90
13606;DHT22;6874;52.084;5.090;2022-10-22T05:37:50;13.50;99.90
13606;DHT22;6874;52.084;5.090;2022-10-22T05:40:16;13.50;99.90
13606;DHT22;6874;52.084;5.090;2022-10-22T05:42:41;13.50;99.90
13606;DHT22;6874;52.084;5.090;2022-10-22T05:45:07;13.50;99.90
13606;DHT22;6874;52.084;5.090;2022-10-22T05:47:33;13.50;99.90
13606;DHT22;6874;52.084;5.090;2022-10-22T05:49:58;13.50;99.90
13606;DHT22;6874;52.084;5.090;2022-10-22T05:52:24;13.40;99.90
13606;DHT22;6874;52.084;5.090;2022-10-22T05:54:50;13.40;99.90
13606;DHT22;6874;52.084;5.090;2022-10-22T05:57:16;13.40;99.90
13606;DHT22;6874;52.084;5.090;2022-10-22T05:59:41;13.40;99.90
13606;DHT22;6874;52.084;5.090;2022-10-22T06:02:10;13.40;99.90
13606;DHT22;6874;52.084;5.090;2022-10-22T06:04:35;13.40;99.90
13606;DHT22;6874;52.084;5.090;2022-10-22T06:07:01;13.40;99.90
13606;DHT22;6874;52.084;5.090;2022-10-22T06:09:33;13.40;99.90
13606;DHT22;6874;52.084;5.090;2022-10-22T06:12:01;13.40;99.90
13606;DHT22;6874;52.084;5.090;2022-10-22T06:14:27;13.40;99.90
13606;DHT22;6874;52.084;5.090;2022-10-22T06:16:54;13.40;99.90
13606;DHT22;6874;52.084;5.090;2022-10-22T06:19:21;13.40;99.90
13606;DHT22;6874;52.084;5.090;2022-10-22T06:21:47;13.40;99.90
13606;DHT22;6874;52.084;5.090;2022-10-22T06:24:13;13.40;99.90
13606;DHT22;6874;52.084;5.090;2022-10-22T06:26:39;13.40;99.90
13606;DHT22;6874;52.084;5.090;2022-10-22T06:29:05;13.40;99.90
13606;DHT22;6874;52.084;5.090;2022-10-22T06:31:31;13.40;99.90
13606;DHT22;6874;52.084;5.090;2022-10-22T06:34:02;13.40;99.90
13606;DHT22;6874;52.084;5.090;2022-10-22T06:36:27;13.30;99.90
13606;DHT22;6874;52.084;5.090;2022-10-22T06:38:54;13.30;99.90
13606;DHT22;6874;52.084;5.090;2022-10-22T06:41:20;13.30;99.90
13606;DHT22;6874;52.084;5.090;2022-10-22T06:43:46;13.30;99.90
13606;DHT22;6874;52.084;5.090;2022-10-22T06:46:14;13.30;99.90
13606;DHT22;6874;52.084;5.090;2022-10-22T06:48:39;13.30;99.90
13606;DHT22;6874;52.084;5.090;2022-10-22T06:51:10;13.30;99.90
13606;DHT22;6874;52.084;5.090;2022-10-22T06:53:37;13.30;99.90
13606;DHT22;6874;52.084;5.090;2022-10-22T06:56:14;13.30;99.90
13606;DHT22;6874;52.084;5.090;2022-10-22T06:58:40;13.30;99.90
13606;DHT22;6874;52.084;5.090;2022-10-22T07:01:12;13.30;99.90
13606;DHT22;6874;52.084;5.090;2022-10-22T07:03:38;13.30;99.90
13606;DHT22;6874;52.084;5.090;2022-10-22T07:06:07;13.30;99.90
13606;DHT22;6874;52.084;5.090;2022-10-22T07:08:33;13.40;99.90
13606;DHT22;6874;52.084;5.090;2022-10-22T07:11:11;13.40;99.90
13606;DHT22;6874;52.084;5.090;2022-10-22T07:13:37;13.40;99.90
13606;DHT22;6874;52.084;5.090;2022-10-22T07:16:04;13.40;99.90
13606;DHT22;6874;52.084;5.090;2022-10-22T07:18:31;13.30;99.90
13606;DHT22;6874;52.084;5.090;2022-10-22T07:20:56;13.40;99.90
13606;DHT22;6874;52.084;5.090;2022-10-22T07:23:25;13.40;99.90
13606;DHT22;6874;52.084;5.090;2022-10-22T07:25:51;13.40;99.90
13606;DHT22;6874;52.084;5.090;2022-10-22T07:28:17;13.40;99.90
13606;DHT22;6874;52.084;5.090;2022-10-22T07:30:43;13.40;99.90
13606;DHT22;6874;52.084;5.090;2022-10-22T07:33:09;13.40;99.90
13606;DHT22;6874;52.084;5.090;2022-10-22T07:35:36;13.50;99.90
13606;DHT22;6874;52.084;5.090;2022-10-22T07:38:02;13.50;99.90
13606;DHT22;6874;52.084;5.090;2022-10-22T07:40:28;13.50;99.90
13606;DHT22;6874;52.084;5.090;2022-10-22T07:42:54;13.50;99.90
13606;DHT22;6874;52.084;5.090;2022-10-22T07:45:19;13.50;99.90
13606;DHT22;6874;52.084;5.090;2022-10-22T07:47:46;13.50;99.90
13606;DHT22;6874;52.084;5.090;2022-10-22T07:50:12;13.50;99.90
13606;DHT22;6874;52.084;5.090;2022-10-22T07:52:37;13.50;99.90
13606;DHT22;6874;52.084;5.090;2022-10-22T07:55:04;13.60;99.90
13606;DHT22;6874;52.084;5.090;2022-10-22T07:57:29;13.60;99.90
13606;DHT22;6874;52.084;5.090;2022-10-22T07:59:56;13.60;99.90
13606;DHT22;6874;52.084;5.090;2022-10-22T08:02:23;13.60;99.90
13606;DHT22;6874;52.084;5.090;2022-10-22T08:04:48;13.70;99.90
13606;DHT22;6874;52.084;5.090;2022-10-22T08:07:14;13.70;99.90
13606;DHT22;6874;52.084;5.090;2022-10-22T08:09:39;13.70;99.90
13606;DHT22;6874;52.084;5.090;2022-10-22T08:12:05;13.70;99.90
13606;DHT22;6874;52.084;5.090;2022-10-22T08:14:31;13.80;99.90
13606;DHT22;6874;52.084;5.090;2022-10-22T08:16:56;13.80;99.90
13606;DHT22;6874;52.084;5.090;2022-10-22T08:19:22;13.90;99.90
13606;DHT22;6874;52.084;5.090;2022-10-22T08:21:48;13.80;99.90
13606;DHT22;6874;52.084;5.090;2022-10-22T08:24:13;13.80;99.90
13606;DHT22;6874;52.084;5.090;2022-10-22T08:26:40;13.90;99.90
13606;DHT22;6874;52.084;5.090;2022-10-22T08:29:06;13.90;99.90
13606;DHT22;6874;52.084;5.090;2022-10-22T08:31:32;13.90;99.90
13606;DHT22;6874;52.084;5.090;2022-10-22T08:33:58;13.90;99.90
13606;DHT22;6874;52.084;5.090;2022-10-22T08:36:23;13.90;99.90
13606;DHT22;6874;52.084;5.090;2022-10-22T08:38:49;13.90;99.90
13606;DHT22;6874;52.084;5.090;2022-10-22T08:41:20;14.00;99.90
13606;DHT22;6874;52.084;5.090;2022-10-22T08:46:29;14.00;99.90
13606;DHT22;6874;52.084;5.090;2022-10-22T08:49:01;14.00;99.90
13606;DHT22;6874;52.084;5.090;2022-10-22T08:51:31;14.00;99.90
13606;DHT22;6874;52.084;5.090;2022-10-22T08:56:44;14.10;99.90
13606;DHT22;6874;52.084;5.090;2022-10-22T08:59:43;14.10;99.90
13606;DHT22;6874;52.084;5.090;2022-10-22T09:08:00;14.20;99.90
13606;DHT22;6874;52.084;5.090;2022-10-22T09:10:30;14.20;99.90
13606;DHT22;6874;52.084;5.090;2022-10-22T09:12:57;14.20;99.90
13606;DHT22;6874;52.084;5.090;2022-10-22T09:15:22;14.30;99.90
13606;DHT22;6874;52.084;5.090;2022-10-22T09:20:37;14.30;99.90
13606;DHT22;6874;52.084;5.090;2022-10-22T09:23:28;14.40;99.90
13606;DHT22;6874;52.084;5.090;2022-10-22T09:25:57;14.40;99.90
13606;DHT22;6874;52.084;5.090;2022-10-22T09:28:22;14.50;99.90
13606;DHT22;6874;52.084;5.090;2022-10-22T09:30:48;14.50;99.90
13606;DHT22;6874;52.084;5.090;2022-10-22T09:33:24;14.50;99.90
13606;DHT22;6874;52.084;5.090;2022-10-22T09:38:19;14.60;99.90
13606;DHT22;6874;52.084;5.090;2022-10-22T09:40:50;14.60;99.90
13606;DHT22;6874;52.084;5.090;2022-10-22T09:43:17;14.70;99.90
13606;DHT22;6874;52.084;5.090;2022-10-22T09:45:43;14.70;99.90
13606;DHT22;6874;52.084;5.090;2022-10-22T09:48:28;14.70;99.90
13606;DHT22;6874;52.084;5.090;2022-10-22T09:53:43;14.80;99.90
13606;DHT22;6874;52.084;5.090;2022-10-22T09:56:17;14.80;99.90
13606;DHT22;6874;52.084;5.090;2022-10-22T09:58:46;14.80;99.90
13606;DHT22;6874;52.084;5.090;2022-10-22T10:01:19;14.90;99.90
13606;DHT22;6874;52.084;5.090;2022-10-22T10:03:48;14.80;99.90
13606;DHT22;6874;52.084;5.090;2022-10-22T10:06:18;15.00;99.90
13606;DHT22;6874;52.084;5.090;2022-10-22T10:08:44;14.90;99.90
13606;DHT22;6874;52.084;5.090;2022-10-22T10:11:26;15.00;99.90
13606;DHT22;6874;52.084;5.090;2022-10-22T10:14:04;15.00;99.90
13606;DHT22;6874;52.084;5.090;2022-10-22T10:19:19;15.10;99.90
13606;DHT22;6874;52.084;5.090;2022-10-22T10:22:06;15.20;99.90
13606;DHT22;6874;52.084;5.090;2022-10-22T10:24:47;15.20;99.90
13606;DHT22;6874;52.084;5.090;2022-10-22T10:27:28;15.20;99.90
13606;DHT22;6874;52.084;5.090;2022-10-22T10:30:04;15.20;99.90
13606;DHT22;6874;52.084;5.090;2022-10-22T10:46:24;15.30;99.90
13606;DHT22;6874;52.084;5.090;2022-10-22T10:49:08;15.40;99.90
13606;DHT22;6874;52.084;5.090;2022-10-22T10:57:52;15.50;99.90
13606;DHT22;6874;52.084;5.090;2022-10-22T11:00:21;15.50;99.90
13606;DHT22;6874;52.084;5.090;2022-10-22T11:02:55;15.60;99.90
13606;DHT22;6874;52.084;5.090;2022-10-22T11:05:36;15.60;99.90
13606;DHT22;6874;52.084;5.090;2022-10-22T11:08:15;15.70;99.90
13606;DHT22;6874;52.084;5.090;2022-10-22T11:13:29;15.70;99.90
13606;DHT22;6874;52.084;5.090;2022-10-22T11:16:19;15.70;99.90
13606;DHT22;6874;52.084;5.090;2022-10-22T11:19:11;15.80;99.90
13606;DHT22;6874;52.084;5.090;2022-10-22T11:25:02;15.80;99.90
13606;DHT22;6874;52.084;5.090;2022-10-22T11:27:37;15.90;99.90
13606;DHT22;6874;52.084;5.090;2022-10-22T11:30:12;15.90;99.90
13606;DHT22;6874;52.084;5.090;2022-10-22T11:32:40;15.90;99.90
13606;DHT22;6874;52.084;5.090;2022-10-22T11:35:15;16.00;99.90
13606;DHT22;6874;52.084;5.090;2022-10-22T11:37:43;16.00;99.90
13606;DHT22;6874;52.084;5.090;2022-10-22T11:40:20;16.00;99.90
13606;DHT22;6874;52.084;5.090;2022-10-22T11:42:53;16.00;99.90
13606;DHT22;6874;52.084;5.090;2022-10-22T11:50:20;16.10;99.90
13606;DHT22;6874;52.084;5.090;2022-10-22T11:53:01;16.20;99.90
13606;DHT22;6874;52.084;5.090;2022-10-22T11:58:41;16.20;99.90
13606;DHT22;6874;52.084;5.090;2022-10-22T12:06:21;16.30;99.90
13606;DHT22;6874;52.084;5.090;2022-10-22T12:16:39;16.40;99.90
13606;DHT22;6874;52.084;5.090;2022-10-22T12:19:28;16.40;99.90
13606;DHT22;6874;52.084;5.090;2022-10-22T12:22:21;16.40;99.90
13606;DHT22;6874;52.084;5.090;2022-10-22T12:24:47;16.40;99.90
13606;DHT22;6874;52.084;5.090;2022-10-22T12:27:23;16.40;99.90
13606;DHT22;6874;52.084;5.090;2022-10-22T12:29:54;16.40;99.90
13606;DHT22;6874;52.084;5.090;2022-10-22T12:32:20;16.50;99.90
13606;DHT22;6874;52.084;5.090;2022-10-22T12:34:51;16.60;99.90
13606;DHT22;6874;52.084;5.090;2022-10-22T12:37:17;16.60;99.90
13606;DHT22;6874;52.084;5.090;2022-10-22T12:39:44;16.60;99.90
13606;DHT22;6874;52.084;5.090;2022-10-22T12:42:14;16.70;99.90
13606;DHT22;6874;52.084;5.090;2022-10-22T12:44:42;16.70;99.90
13606;DHT22;6874;52.084;5.090;2022-10-22T12:47:15;16.80;99.90
13606;DHT22;6874;52.084;5.090;2022-10-22T12:49:43;16.80;99.90
13606;DHT22;6874;52.084;5.090;2022-10-22T12:52:16;16.90;99.90
13606;DHT22;6874;52.084;5.090;2022-10-22T12:54:45;16.90;99.90
13606;DHT22;6874;52.084;5.090;2022-10-22T12:57:14;17.00;99.90
13606;DHT22;6874;52.084;5.090;2022-10-22T12:59:43;17.00;99.90
13606;DHT22;6874;52.084;5.090;2022-10-22T13:02:24;17.00;99.90
13606;DHT22;6874;52.084;5.090;2022-10-22T13:05:15;17.10;99.90
13606;DHT22;6874;52.084;5.090;2022-10-22T13:07:52;17.10;99.90
13606;DHT22;6874;52.084;5.090;2022-10-22T13:10:35;17.20;99.90
13606;DHT22;6874;52.084;5.090;2022-10-22T13:13:01;17.20;99.90
13606;DHT22;6874;52.084;5.090;2022-10-22T13:15:36;17.30;99.90
13606;DHT22;6874;52.084;5.090;2022-10-22T13:18:22;17.30;99.90
13606;DHT22;6874;52.084;5.090;2022-10-22T13:21:00;17.40;99.90
13606;DHT22;6874;52.084;5.090;2022-10-22T13:23:28;17.40;99.90
13606;DHT22;6874;52.084;5.090;2022-10-22T13:26:03;17.50;99.90
13606;DHT22;6874;52.084;5.090;2022-10-22T13:28:36;17.40;99.90
13606;DHT22;6874;52.084;5.090;2022-10-22T13:31:16;17.40;99.90
13606;DHT22;6874;52.084;5.090;2022-10-22T13:33:44;17.40;99.90
13606;DHT22;6874;52.084;5.090;2022-10-22T13:36:16;17.40;99.90
13606;DHT22;6874;52.084;5.090;2022-10-22T13:38:43;17.40;99.90
13606;DHT22;6874;52.084;5.090;2022-10-22T13:41:26;17.50;99.90
13606;DHT22;6874;52.084;5.090;2022-10-22T13:43:52;17.50;99.90
13606;DHT22;6874;52.084;5.090;2022-10-22T13:46:19;17.50;99.90
13606;DHT22;6874;52.084;5.090;2022-10-22T13:48:46;17.50;99.90
13606;DHT22;6874;52.084;5.090;2022-10-22T13:51:20;17.50;99.90
13606;DHT22;6874;52.084;5.090;2022-10-22T13:53:47;17.60;99.90
13606;DHT22;6874;52.084;5.090;2022-10-22T13:56:17;17.60;99.90
13606;DHT22;6874;52.084;5.090;2022-10-22T13:58:44;17.60;99.90
13606;DHT22;6874;52.084;5.090;2022-10-22T14:01:30;17.60;99.90
13606;DHT22;6874;52.084;5.090;2022-10-22T14:03:58;17.60;99.90
13606;DHT22;6874;52.084;5.090;2022-10-22T14:06:25;17.60;99.90
13606;DHT22;6874;52.084;5.090;2022-10-22T14:08:57;17.60;99.90
13606;DHT22;6874;52.084;5.090;2022-10-22T14:11:24;17.60;99.90
13606;DHT22;6874;52.084;5.090;2022-10-22T14:13:52;17.70;99.90
13606;DHT22;6874;52.084;5.090;2022-10-22T14:16:25;17.60;99.90
13606;DHT22;6874;52.084;5.090;2022-10-22T14:18:51;17.70;99.90
13606;DHT22;6874;52.084;5.090;2022-10-22T14:21:18;17.70;99.90
13606;DHT22;6874;52.084;5.090;2022-10-22T14:23:46;17.70;99.90
13606;DHT22;6874;52.084;5.090;2022-10-22T14:26:23;17.70;99.90
13606;DHT22;6874;52.084;5.090;2022-10-22T14:28:49;17.60;99.90
13606;DHT22;6874;52.084;5.090;2022-10-22T14:31:15;17.60;99.90
13606;DHT22;6874;52.084;5.090;2022-10-22T14:33:41;17.60;99.90
13606;DHT22;6874;52.084;5.090;2022-10-22T14:36:10;17.60;99.90
13606;DHT22;6874;52.084;5.090;2022-10-22T14:38:37;17.60;99.90
13606;DHT22;6874;52.084;5.090;2022-10-22T14:41:13;17.60;99.90
13606;DHT22;6874;52.084;5.090;2022-10-22T14:43:39;17.50;99.90
13606;DHT22;6874;52.084;5.090;2022-10-22T14:46:05;17.50;99.90
13606;DHT22;6874;52.084;5.090;2022-10-22T14:48:30;17.50;99.90
13606;DHT22;6874;52.084;5.090;2022-10-22T14:50:56;17.50;99.90
13606;DHT22;6874;52.084;5.090;2022-10-22T14:53:21;17.50;99.90
13606;DHT22;6874;52.084;5.090;2022-10-22T14:55:47;17.50;99.90
13606;DHT22;6874;52.084;5.090;2022-10-22T14:58:14;17.40;99.90
13606;DHT22;6874;52.084;5.090;2022-10-22T15:00:40;17.40;99.90
13606;DHT22;6874;52.084;5.090;2022-10-22T15:03:06;17.40;99.90
13606;DHT22;6874;52.084;5.090;2022-10-22T15:05:31;17.40;99.90
13606;DHT22;6874;52.084;5.090;2022-10-22T15:07:57;17.30;99.90
13606;DHT22;6874;52.084;5.090;2022-10-22T15:10:24;17.30;99.90
13606;DHT22;6874;52.084;5.090;2022-10-22T15:12:49;17.30;99.90
13606;DHT22;6874;52.084;5.090;2022-10-22T15:15:15;17.30;99.90
13606;DHT22;6874;52.084;5.090;2022-10-22T15:17:40;17.30;99.90
13606;DHT22;6874;52.084;5.090;2022-10-22T15:20:06;17.20;99.90
13606;DHT22;6874;52.084;5.090;2022-10-22T15:22:33;17.20;99.90
13606;DHT22;6874;52.084;5.090;2022-10-22T15:25:04;17.20;99.90
13606;DHT22;6874;52.084;5.090;2022-10-22T15:27:30;17.20;99.90
13606;DHT22;6874;52.084;5.090;2022-10-22T15:29:55;17.30;99.90
13606;DHT22;6874;52.084;5.090;2022-10-22T15:32:24;17.10;99.90
13606;DHT22;6874;52.084;5.090;2022-10-22T15:34:51;17.10;99.90
13606;DHT22;6874;52.084;5.090;2022-10-22T15:37:18;17.10;99.90
13606;DHT22;6874;52.084;5.090;2022-10-22T15:39:44;17.10;99.90
13606;DHT22;6874;52.084;5.090;2022-10-22T15:42:09;17.10;99.90
13606;DHT22;6874;52.084;5.090;2022-10-22T15:44:36;17.10;99.90
13606;DHT22;6874;52.084;5.090;2022-10-22T15:47:02;17.00;99.90
13606;DHT22;6874;52.084;5.090;2022-10-22T15:49:28;17.00;99.90
13606;DHT22;6874;52.084;5.090;2022-10-22T15:51:54;17.00;99.90
13606;DHT22;6874;52.084;5.090;2022-10-22T15:54:23;17.00;99.90
13606;DHT22;6874;52.084;5.090;2022-10-22T15:56:49;16.90;99.90
13606;DHT22;6874;52.084;5.090;2022-10-22T15:59:15;16.90;99.90
13606;DHT22;6874;52.084;5.090;2022-10-22T16:01:41;16.90;99.90
13606;DHT22;6874;52.084;5.090;2022-10-22T16:04:07;16.90;99.90
13606;DHT22;6874;52.084;5.090;2022-10-22T16:06:43;16.90;99.90
13606;DHT22;6874;52.084;5.090;2022-10-22T16:09:20;16.80;99.90
13606;DHT22;6874;52.084;5.090;2022-10-22T16:11:47;16.80;99.90
13606;DHT22;6874;52.084;5.090;2022-10-22T16:14:14;16.70;99.90
13606;DHT22;6874;52.084;5.090;2022-10-22T16:16:45;16.70;99.90
13606;DHT22;6874;52.084;5.090;2022-10-22T16:19:12;16.60;99.90
13606;DHT22;6874;52.084;5.090;2022-10-22T16:21:38;16.60;99.90
13606;DHT22;6874;52.084;5.090;2022-10-22T16:24:05;16.60;99.90
13606;DHT22;6874;52.084;5.090;2022-10-22T16:26:31;16.50;99.90
13606;DHT22;6874;52.084;5.090;2022-10-22T16:28:57;16.50;99.90
13606;DHT22;6874;52.084;5.090;2022-10-22T16:31:22;16.40;99.90
13606;DHT22;6874;52.084;5.090;2022-10-22T16:33:48;16.40;99.90
13606;DHT22;6874;52.084;5.090;2022-10-22T16:36:16;16.30;99.90
13606;DHT22;6874;52.084;5.090;2022-10-22T16:38:43;16.30;99.90
13606;DHT22;6874;52.084;5.090;2022-10-22T16:41:13;16.30;99.90
13606;DHT22;6874;52.084;5.090;2022-10-22T16:43:41;16.20;99.90
13606;DHT22;6874;52.084;5.090;2022-10-22T16:46:07;16.20;99.90
13606;DHT22;6874;52.084;5.090;2022-10-22T16:48:33;16.20;99.90
13606;DHT22;6874;52.084;5.090;2022-10-22T16:51:03;16.10;99.90
13606;DHT22;6874;52.084;5.090;2022-10-22T16:53:29;16.10;99.90
13606;DHT22;6874;52.084;5.090;2022-10-22T16:55:54;16.00;99.90
13606;DHT22;6874;52.084;5.090;2022-10-22T16:58:20;16.00;99.90
13606;DHT22;6874;52.084;5.090;2022-10-22T17:00:45;15.90;99.90
13606;DHT22;6874;52.084;5.090;2022-10-22T17:03:11;15.90;99.90
13606;DHT22;6874;52.084;5.090;2022-10-22T17:05:37;15.90;99.90
13606;DHT22;6874;52.084;5.090;2022-10-22T17:08:02;15.90;99.90
13606;DHT22;6874;52.084;5.090;2022-10-22T17:10:28;15.80;99.90
13606;DHT22;6874;52.084;5.090;2022-10-22T17:12:54;15.70;99.90